Terminal Aerodrome Forecast
Issued by NWS

Home | Current Version | Previous Version | Text Only | Print | Product List | Glossary On
Versions: 1 2 3 4 5 6 7 8 9 10 11 12 13 14 15 16 17
741
FTUS43 KDLH 131733
TAFHYR
TAF
KHYR 131733Z 1318/1418 18005KT P6SM SKC
     FM141000 16007KT P6SM BKN150
     FM141400 15007KT P6SM VCSH OVC050
      TEMPO 1414/1418 3SM -SN BR OVC025=

USA.gov is the U.S. government's official web portal to all federal, state and local government web resources and services.